Lovely Lady — 9HIE6 — position and weather

sailwx.info

Track history (hours):
 
Tides and Currents Weather Stations Pressure Air Temp Water Temp Dewpoint Dewpoint Depression Visibility Wind Speed Wind Dir Waves Ship Positions

Lovely Lady

Last reported at 2017-Dec-14 11:01 UTC. Time now 2017-Dec-15 23:50 UTC.
Position N 50°29' W 000°17'.

Length 182 m; draft 11.9 m.

Type: Tanker. MMSI: 248536000.

Date/timePositionNaut miles runAvg speedWind from/ knotsBaromVisibWave heightAir tempDewpointWater temp
2017-Dec-14 11:01N 50°29' W 000°17'011.0
2017-Dec-14 11:00N 50°29' W 000°17'510.7
2017-Dec-14 10:31N 50°30' W 000°09'510.1
2017-Dec-14 10:00N 50°31' W 000°01'5 9.6
2017-Dec-14 09:30N 50°33' E 000°06'5 8.9
2017-Dec-14 08:59N 50°34' E 000°13'4 8.8
2017-Dec-14 08:31N 50°35' E 000°20'4 8.2
2017-Dec-14 08:01N 50°36' E 000°26'4 7.6
2017-Dec-14 07:30N 50°37' E 000°32'4 7.6
2017-Dec-14 07:01N 50°39' E 000°37'5 9.3
2017-Dec-14 06:31N 50°41' E 000°43'5 9.8
2017-Dec-14 06:01N 50°44' E 000°49'5 9.7
2017-Dec-14 05:30N 50°47' E 000°56'5 9.9
2017-Dec-14 05:00N 50°50' E 001°02'1611.5
2017-Dec-14 03:37N 51°01' E 001°21'212.5
2017-Dec-14 03:30N 51°02' E 001°22'612.5
2017-Dec-14 03:01N 51°06' E 001°30'612.1
2017-Dec-14 02:31N 51°10' E 001°37'611.5
2017-Dec-14 02:01N 51°13' E 001°44'611.2
2017-Dec-14 01:31N 51°18' E 001°48'611.0
2017-Dec-14 01:00N 51°23' E 001°52'510.4
2017-Dec-14 00:31N 51°28' E 001°56'510.1
2017-Dec-14 00:00N 51°31' E 002°02'510.4
2017-Dec-13 23:30N 51°35' E 002°08'21411.0
2017-Dec-13 04:02N 54°42' E 005°02'0 9.8
2017-Dec-13 04:00N 54°42' E 005°02'5 9.9
2017-Dec-13 03:30N 54°47' E 005°06'26811.7
2017-Dec-12 04:33N 58°05' E 010°34'112.3
2017-Dec-12 04:29N 58°05' E 010°35'612.3
2017-Dec-12 04:00N 58°08' E 010°44'612.4
2017-Dec-12 03:30N 58°11' E 010°55'612.5
2017-Dec-12 03:00N 58°14' E 011°06'510.4
2017-Dec-12 02:30N 58°16' E 011°15'5 9.9
2017-Dec-12 02:01N 58°19' E 011°22'3 6.4
2017-Dec-12 01:30N 58°21' E 011°26'0 0.0
2017-Dec-10 06:50N 58°21' E 011°26'0 0.0
2017-Dec-10 06:27N 58°21' E 011°26'1 1.9
2017-Dec-10 05:59N 58°21' E 011°24'4 8.5
2017-Dec-10 05:30N 58°18' E 011°19'510.1
2017-Dec-10 05:01N 58°15' E 011°12'4 7.6
2017-Dec-10 04:31N 58°13' E 011°06'4 7.2
2017-Dec-10 04:01N 58°11' E 010°60'4 7.3
2017-Dec-10 03:31N 58°09' E 010°54'4 7.3
2017-Dec-10 03:00N 58°08' E 010°48'4 7.3
2017-Dec-10 02:31N 58°06' E 010°42'5 7.5
2017-Dec-10 01:53N 58°03' E 010°34'350 8.3
2017-Dec-08 07:54N 53°34' E 003°55'614.2
2017-Dec-08 07:29N 53°31' E 003°47'12912.9
2017-Dec-07 21:29N 51°33' E 002°18'4 8.3
2017-Dec-07 21:00N 51°30' E 002°14'713.4
2017-Dec-07 20:30N 51°25' E 002°07'612.7
2017-Dec-07 20:00N 51°19' E 002°07'612.6
2017-Dec-07 19:30N 51°13' E 002°03'714.2
2017-Dec-07 19:01N 51°10' E 001°52'714.1
2017-Dec-07 18:30N 51°05' E 001°44'714.5
2017-Dec-07 18:00N 51°00' E 001°36'6814.0
2017-Dec-07 13:08N 50°21' E 000°08'315.2
2017-Dec-07 12:54N 50°20' E 000°03'11216.0
2017-Dec-07 05:54N 49°51' W 002°46'10513.5
2017-Dec-06 22:07N 48°58' W 005°06'313.8
2017-Dec-06 21:56N 48°57' W 005°09'714.0
2017-Dec-06 21:25N 48°53' W 005°19'  
Track history (hours):
 
Tides and Currents Weather Stations Pressure Air Temp Water Temp Dewpoint Dewpoint Depression Visibility Wind Speed Wind Dir Waves Ship Positions

Lovely Lady

Last reported at 2017-Dec-14 11:01 UTC. Time now 2017-Dec-15 23:50 UTC.
Position N 50°29' W 000°17'.

Length 182 m; draft 11.9 m.

Type: Tanker. MMSI: 248536000.

Date/timePositionNaut miles runAvg speedWind from/ knotsBaromVisibWave heightAir tempDewpointWater temp
2017-Dec-14 11:01N 50°29' W 000°17'011.0
2017-Dec-14 11:00N 50°29' W 000°17'510.7
2017-Dec-14 10:31N 50°30' W 000°09'510.1
2017-Dec-14 10:00N 50°31' W 000°01'5 9.6
2017-Dec-14 09:30N 50°33' E 000°06'5 8.9
2017-Dec-14 08:59N 50°34' E 000°13'4 8.8
2017-Dec-14 08:31N 50°35' E 000°20'4 8.2
2017-Dec-14 08:01N 50°36' E 000°26'4 7.6
2017-Dec-14 07:30N 50°37' E 000°32'4 7.6
2017-Dec-14 07:01N 50°39' E 000°37'5 9.3
2017-Dec-14 06:31N 50°41' E 000°43'5 9.8
2017-Dec-14 06:01N 50°44' E 000°49'5 9.7
2017-Dec-14 05:30N 50°47' E 000°56'5 9.9
2017-Dec-14 05:00N 50°50' E 001°02'1611.5
2017-Dec-14 03:37N 51°01' E 001°21'212.5
2017-Dec-14 03:30N 51°02' E 001°22'612.5
2017-Dec-14 03:01N 51°06' E 001°30'612.1
2017-Dec-14 02:31N 51°10' E 001°37'611.5
2017-Dec-14 02:01N 51°13' E 001°44'611.2
2017-Dec-14 01:31N 51°18' E 001°48'611.0
2017-Dec-14 01:00N 51°23' E 001°52'510.4
2017-Dec-14 00:31N 51°28' E 001°56'510.1
2017-Dec-14 00:00N 51°31' E 002°02'510.4
2017-Dec-13 23:30N 51°35' E 002°08'21411.0
2017-Dec-13 04:02N 54°42' E 005°02'0 9.8
2017-Dec-13 04:00N 54°42' E 005°02'5 9.9
2017-Dec-13 03:30N 54°47' E 005°06'26811.7
2017-Dec-12 04:33N 58°05' E 010°34'112.3
2017-Dec-12 04:29N 58°05' E 010°35'612.3
2017-Dec-12 04:00N 58°08' E 010°44'612.4
2017-Dec-12 03:30N 58°11' E 010°55'612.5
2017-Dec-12 03:00N 58°14' E 011°06'510.4
2017-Dec-12 02:30N 58°16' E 011°15'5 9.9
2017-Dec-12 02:01N 58°19' E 011°22'3 6.4
2017-Dec-12 01:30N 58°21' E 011°26'0 0.0
2017-Dec-10 06:50N 58°21' E 011°26'0 0.0
2017-Dec-10 06:27N 58°21' E 011°26'1 1.9
2017-Dec-10 05:59N 58°21' E 011°24'4 8.5
2017-Dec-10 05:30N 58°18' E 011°19'510.1
2017-Dec-10 05:01N 58°15' E 011°12'4 7.6
2017-Dec-10 04:31N 58°13' E 011°06'4 7.2
2017-Dec-10 04:01N 58°11' E 010°60'4 7.3
2017-Dec-10 03:31N 58°09' E 010°54'4 7.3
2017-Dec-10 03:00N 58°08' E 010°48'4 7.3
2017-Dec-10 02:31N 58°06' E 010°42'5 7.5
2017-Dec-10 01:53N 58°03' E 010°34'350 8.3
2017-Dec-08 07:54N 53°34' E 003°55'614.2
2017-Dec-08 07:29N 53°31' E 003°47'12912.9
2017-Dec-07 21:29N 51°33' E 002°18'4 8.3
2017-Dec-07 21:00N 51°30' E 002°14'713.4
2017-Dec-07 20:30N 51°25' E 002°07'612.7
2017-Dec-07 20:00N 51°19' E 002°07'612.6
2017-Dec-07 19:30N 51°13' E 002°03'714.2
2017-Dec-07 19:01N 51°10' E 001°52'714.1
2017-Dec-07 18:30N 51°05' E 001°44'714.5
2017-Dec-07 18:00N 51°00' E 001°36'6814.0
2017-Dec-07 13:08N 50°21' E 000°08'315.2
2017-Dec-07 12:54N 50°20' E 000°03'11216.0
2017-Dec-07 05:54N 49°51' W 002°46'10513.5
2017-Dec-06 22:07N 48°58' W 005°06'313.8
2017-Dec-06 21:56N 48°57' W 005°09'714.0
2017-Dec-06 21:25N 48°53' W 005°19'  

Dump ship's entire track history